Strona główna
METAR-TAF:

METAR-TAF

Lotnisko :

Port lotniczy Oslo-Gardermoen

Oslo, Norwegia

Szerokość geograficzna: 60-12N, Długość geograficzna: 011-05E, wysokość: 208 m

Aktualna obserwacja pogody

Raport powstał 38 minut temu, godzina 10:50 UTC
Wiatr 7 kt od zachód, zmienny między zachodnio-południowy zachód i północ
Temperatura 4°C
Wilgotność 28%
Ciśnienie 996 hPa
Widzialność 10 km lub więcej
Mało chmury na wysokości 4800 ft, Cumulonimbus.
Rozproszone chmury na wysokości 7800 ft
słaby przelotny opad deszczu

METAR: ENGM 031050Z 28007KT 240V360 9999 -SHRA FEW048CB SCT078 04/M13 Q0996 NOSIG

czas: 13:28 (11:28 UTC)

Prognoza

Prognoza ważna od 03 godzina 06 UTC do 04 godzina 06 UTC
Wiatr 12 kt od północny zachód
Widzialność 10 km lub więcej
Mało chmury na wysokości 3000 ft
Rozproszone chmury na wysokości 7000 ft
Przejściowo
od 03 godzina 10 UTC do 03 godzina 16 UTC
Wiatr 15 kt od zachód w porywach dochodzący do 25 kt

TAF: ENGM 0306/0406 32012KT 9999 FEW030 SCT070 TEMPO 0310/0316 26015G25KT

Obserwacja i prognoza pogody dla ponad 4000 lotnisk (raport METAR i TAF).

Dostępne stacje oznaczono żółtymi i czerwonymi punktami na mapie.

Najedź kursorem aby zobaczyć nazwę stacji.

Kliknij aby zobaczyć obserwacje i prognozy pogody.

Aby zmienić mapę: kliknij na zielony przycisk z czarnym krzyżykiem, aby powiększyć; na zielony przycisk z myślnikiem, aby pomniejszyć; na zielone strzałki, aby przejść do map sąsiednich.


METAR-TAF: